sensor_id;sensor_type;location;lat;lon;timestamp;P1;durP1;ratioP1;P2;durP2;ratioP2
12631;SDS011;6381;45.748;12.106;2023-05-10T00:02:08;4.30;;;3.10;;
12631;SDS011;6381;45.748;12.106;2023-05-10T00:04:39;3.47;;;3.17;;
12631;SDS011;6381;45.748;12.106;2023-05-10T00:07:08;4.45;;;3.22;;
12631;SDS011;6381;45.748;12.106;2023-05-10T00:09:38;3.40;;;3.10;;
12631;SDS011;6381;45.748;12.106;2023-05-10T00:12:08;3.20;;;2.90;;
12631;SDS011;6381;45.748;12.106;2023-05-10T00:14:39;3.65;;;3.35;;
12631;SDS011;6381;45.748;12.106;2023-05-10T00:17:09;4.15;;;2.95;;
12631;SDS011;6381;45.748;12.106;2023-05-10T00:19:39;3.65;;;3.35;;
12631;SDS011;6381;45.748;12.106;2023-05-10T00:22:08;3.55;;;3.25;;
12631;SDS011;6381;45.748;12.106;2023-05-10T00:24:38;4.47;;;3.08;;
12631;SDS011;6381;45.748;12.106;2023-05-10T00:27:08;4.18;;;3.35;;
12631;SDS011;6381;45.748;12.106;2023-05-10T00:29:39;3.65;;;3.03;;
12631;SDS011;6381;45.748;12.106;2023-05-10T00:32:10;3.97;;;3.45;;
12631;SDS011;6381;45.748;12.106;2023-05-10T00:34:42;3.78;;;3.38;;
12631;SDS011;6381;45.748;12.106;2023-05-10T00:37:12;4.43;;;3.40;;
12631;SDS011;6381;45.748;12.106;2023-05-10T00:39:41;4.32;;;3.53;;
12631;SDS011;6381;45.748;12.106;2023-05-10T00:42:11;4.80;;;3.25;;
12631;SDS011;6381;45.748;12.106;2023-05-10T00:44:44;3.47;;;3.15;;
12631;SDS011;6381;45.748;12.106;2023-05-10T00:47:13;3.75;;;3.38;;
12631;SDS011;6381;45.748;12.106;2023-05-10T00:49:44;3.80;;;3.40;;
12631;SDS011;6381;45.748;12.106;2023-05-10T00:52:14;4.03;;;3.58;;
12631;SDS011;6381;45.748;12.106;2023-05-10T00:54:46;4.30;;;3.90;;
12631;SDS011;6381;45.748;12.106;2023-05-10T00:57:16;6.38;;;3.60;;
12631;SDS011;6381;45.748;12.106;2023-05-10T00:59:48;4.10;;;3.70;;
12631;SDS011;6381;45.748;12.106;2023-05-10T01:02:18;5.30;;;3.80;;
12631;SDS011;6381;45.748;12.106;2023-05-10T01:04:48;3.75;;;3.45;;
12631;SDS011;6381;45.748;12.106;2023-05-10T01:07:19;6.90;;;3.60;;
12631;SDS011;6381;45.748;12.106;2023-05-10T01:09:49;4.03;;;3.50;;
12631;SDS011;6381;45.748;12.106;2023-05-10T01:12:18;5.47;;;3.75;;
12631;SDS011;6381;45.748;12.106;2023-05-10T01:14:50;3.97;;;3.47;;
12631;SDS011;6381;45.748;12.106;2023-05-10T01:17:20;6.65;;;3.47;;
12631;SDS011;6381;45.748;12.106;2023-05-10T01:19:51;4.78;;;3.65;;
12631;SDS011;6381;45.748;12.106;2023-05-10T01:22:34;3.90;;;3.60;;
12631;SDS011;6381;45.748;12.106;2023-05-10T01:25:31;4.93;;;4.10;;
12631;SDS011;6381;45.748;12.106;2023-05-10T01:31:40;4.45;;;3.90;;
12631;SDS011;6381;45.748;12.106;2023-05-10T01:34:35;3.90;;;3.50;;
12631;SDS011;6381;45.748;12.106;2023-05-10T01:37:11;3.92;;;3.53;;
12631;SDS011;6381;45.748;12.106;2023-05-10T01:39:47;7.13;;;4.00;;
12631;SDS011;6381;45.748;12.106;2023-05-10T01:42:25;5.28;;;3.70;;
12631;SDS011;6381;45.748;12.106;2023-05-10T01:45:00;4.20;;;3.80;;
12631;SDS011;6381;45.748;12.106;2023-05-10T01:47:38;4.15;;;3.67;;
12631;SDS011;6381;45.748;12.106;2023-05-10T01:50:15;3.53;;;3.22;;
12631;SDS011;6381;45.748;12.106;2023-05-10T01:52:47;3.72;;;3.40;;
12631;SDS011;6381;45.748;12.106;2023-05-10T01:55:23;3.90;;;3.60;;
12631;SDS011;6381;45.748;12.106;2023-05-10T01:58:02;4.65;;;3.80;;
12631;SDS011;6381;45.748;12.106;2023-05-10T02:00:35;3.72;;;3.42;;
12631;SDS011;6381;45.748;12.106;2023-05-10T02:03:10;5.22;;;4.22;;
12631;SDS011;6381;45.748;12.106;2023-05-10T02:05:42;4.93;;;3.83;;
12631;SDS011;6381;45.748;12.106;2023-05-10T02:08:14;4.07;;;3.67;;
12631;SDS011;6381;45.748;12.106;2023-05-10T02:10:47;4.35;;;3.80;;
12631;SDS011;6381;45.748;12.106;2023-05-10T02:13:20;3.28;;;2.97;;
12631;SDS011;6381;45.748;12.106;2023-05-10T02:15:51;5.30;;;3.37;;
12631;SDS011;6381;45.748;12.106;2023-05-10T02:18:25;3.87;;;3.57;;
12631;SDS011;6381;45.748;12.106;2023-05-10T02:20:57;3.85;;;3.55;;
12631;SDS011;6381;45.748;12.106;2023-05-10T02:23:28;4.75;;;3.70;;
12631;SDS011;6381;45.748;12.106;2023-05-10T02:25:59;4.60;;;3.50;;
12631;SDS011;6381;45.748;12.106;2023-05-10T02:28:31;4.17;;;3.77;;
12631;SDS011;6381;45.748;12.106;2023-05-10T02:31:02;4.07;;;3.53;;
12631;SDS011;6381;45.748;12.106;2023-05-10T02:33:35;3.92;;;3.53;;
12631;SDS011;6381;45.748;12.106;2023-05-10T02:36:08;4.03;;;3.63;;
12631;SDS011;6381;45.748;12.106;2023-05-10T02:38:39;4.32;;;3.70;;
12631;SDS011;6381;45.748;12.106;2023-05-10T02:41:09;3.97;;;3.63;;
12631;SDS011;6381;45.748;12.106;2023-05-10T02:43:40;3.88;;;3.50;;
12631;SDS011;6381;45.748;12.106;2023-05-10T02:46:11;3.78;;;3.47;;
12631;SDS011;6381;45.748;12.106;2023-05-10T02:48:43;3.60;;;3.30;;
12631;SDS011;6381;45.748;12.106;2023-05-10T02:51:13;4.13;;;3.58;;
12631;SDS011;6381;45.748;12.106;2023-05-10T02:53:46;6.05;;;3.58;;
12631;SDS011;6381;45.748;12.106;2023-05-10T02:56:20;4.18;;;3.78;;
12631;SDS011;6381;45.748;12.106;2023-05-10T02:58:53;3.80;;;3.25;;
12631;SDS011;6381;45.748;12.106;2023-05-10T03:01:25;4.22;;;3.83;;
12631;SDS011;6381;45.748;12.106;2023-05-10T03:03:58;5.25;;;3.45;;
12631;SDS011;6381;45.748;12.106;2023-05-10T03:06:28;4.22;;;3.45;;
12631;SDS011;6381;45.748;12.106;2023-05-10T03:08:59;3.55;;;3.25;;
12631;SDS011;6381;45.748;12.106;2023-05-10T03:11:34;3.60;;;3.00;;
12631;SDS011;6381;45.748;12.106;2023-05-10T03:14:21;3.90;;;3.50;;
12631;SDS011;6381;45.748;12.106;2023-05-10T03:17:00;3.83;;;3.40;;
12631;SDS011;6381;45.748;12.106;2023-05-10T03:19:39;3.75;;;3.40;;
12631;SDS011;6381;45.748;12.106;2023-05-10T03:22:14;4.25;;;3.40;;
12631;SDS011;6381;45.748;12.106;2023-05-10T03:24:50;3.87;;;3.47;;
12631;SDS011;6381;45.748;12.106;2023-05-10T03:27:25;3.80;;;3.50;;
12631;SDS011;6381;45.748;12.106;2023-05-10T03:29:56;3.40;;;3.10;;
12631;SDS011;6381;45.748;12.106;2023-05-10T03:32:26;3.92;;;3.50;;
12631;SDS011;6381;45.748;12.106;2023-05-10T03:35:01;3.83;;;3.27;;
12631;SDS011;6381;45.748;12.106;2023-05-10T03:37:36;3.78;;;3.30;;
12631;SDS011;6381;45.748;12.106;2023-05-10T03:40:07;3.80;;;3.50;;
12631;SDS011;6381;45.748;12.106;2023-05-10T03:42:40;3.73;;;3.43;;
12631;SDS011;6381;45.748;12.106;2023-05-10T03:45:10;3.90;;;3.40;;
12631;SDS011;6381;45.748;12.106;2023-05-10T03:47:40;3.70;;;3.40;;
12631;SDS011;6381;45.748;12.106;2023-05-10T03:50:12;3.50;;;3.20;;
12631;SDS011;6381;45.748;12.106;2023-05-10T03:52:43;3.37;;;3.07;;
12631;SDS011;6381;45.748;12.106;2023-05-10T03:55:13;3.93;;;3.57;;
12631;SDS011;6381;45.748;12.106;2023-05-10T03:57:44;3.93;;;3.53;;
12631;SDS011;6381;45.748;12.106;2023-05-10T04:00:16;3.53;;;3.23;;
12631;SDS011;6381;45.748;12.106;2023-05-10T04:02:51;4.00;;;3.60;;
12631;SDS011;6381;45.748;12.106;2023-05-10T04:05:24;5.20;;;3.40;;
12631;SDS011;6381;45.748;12.106;2023-05-10T04:07:54;3.60;;;3.30;;
12631;SDS011;6381;45.748;12.106;2023-05-10T04:10:24;3.67;;;3.37;;
12631;SDS011;6381;45.748;12.106;2023-05-10T04:12:54;5.60;;;3.10;;
12631;SDS011;6381;45.748;12.106;2023-05-10T04:15:24;4.83;;;2.97;;
12631;SDS011;6381;45.748;12.106;2023-05-10T04:17:53;3.70;;;3.40;;
12631;SDS011;6381;45.748;12.106;2023-05-10T04:20:25;3.73;;;3.10;;
12631;SDS011;6381;45.748;12.106;2023-05-10T04:22:55;4.93;;;3.13;;
12631;SDS011;6381;45.748;12.106;2023-05-10T04:25:27;3.60;;;3.30;;
12631;SDS011;6381;45.748;12.106;2023-05-10T04:27:57;3.63;;;3.07;;
12631;SDS011;6381;45.748;12.106;2023-05-10T04:30:26;4.13;;;3.30;;
12631;SDS011;6381;45.748;12.106;2023-05-10T04:32:57;4.20;;;3.37;;
12631;SDS011;6381;45.748;12.106;2023-05-10T04:35:28;4.03;;;3.53;;
12631;SDS011;6381;45.748;12.106;2023-05-10T04:37:58;3.97;;;3.57;;
12631;SDS011;6381;45.748;12.106;2023-05-10T04:40:30;3.53;;;3.23;;
12631;SDS011;6381;45.748;12.106;2023-05-10T04:43:00;3.67;;;3.37;;
12631;SDS011;6381;45.748;12.106;2023-05-10T04:45:30;4.70;;;3.47;;
12631;SDS011;6381;45.748;12.106;2023-05-10T04:47:59;4.20;;;3.40;;
12631;SDS011;6381;45.748;12.106;2023-05-10T04:50:31;4.13;;;3.73;;
12631;SDS011;6381;45.748;12.106;2023-05-10T04:53:01;3.95;;;3.65;;
12631;SDS011;6381;45.748;12.106;2023-05-10T04:55:31;4.13;;;3.73;;
12631;SDS011;6381;45.748;12.106;2023-05-10T04:58:01;3.63;;;3.33;;
12631;SDS011;6381;45.748;12.106;2023-05-10T05:00:33;3.67;;;3.37;;
12631;SDS011;6381;45.748;12.106;2023-05-10T05:03:03;3.60;;;3.30;;
12631;SDS011;6381;45.748;12.106;2023-05-10T05:05:35;5.97;;;4.10;;
12631;SDS011;6381;45.748;12.106;2023-05-10T05:08:04;3.77;;;3.40;;
12631;SDS011;6381;45.748;12.106;2023-05-10T05:10:34;4.30;;;3.90;;
12631;SDS011;6381;45.748;12.106;2023-05-10T05:13:04;5.97;;;3.80;;
12631;SDS011;6381;45.748;12.106;2023-05-10T05:15:34;4.40;;;4.00;;
12631;SDS011;6381;45.748;12.106;2023-05-10T05:18:03;4.43;;;4.00;;
12631;SDS011;6381;45.748;12.106;2023-05-10T05:20:35;4.73;;;4.23;;
12631;SDS011;6381;45.748;12.106;2023-05-10T05:23:05;4.43;;;4.03;;
12631;SDS011;6381;45.748;12.106;2023-05-10T05:25:35;4.67;;;3.93;;
12631;SDS011;6381;45.748;12.106;2023-05-10T05:28:05;4.60;;;4.20;;
12631;SDS011;6381;45.748;12.106;2023-05-10T05:30:37;4.30;;;3.90;;
12631;SDS011;6381;45.748;12.106;2023-05-10T05:33:07;4.90;;;4.27;;
12631;SDS011;6381;45.748;12.106;2023-05-10T05:35:38;4.57;;;4.10;;
12631;SDS011;6381;45.748;12.106;2023-05-10T05:38:08;5.13;;;4.10;;
12631;SDS011;6381;45.748;12.106;2023-05-10T05:40:38;4.40;;;4.00;;
12631;SDS011;6381;45.748;12.106;2023-05-10T05:43:08;4.30;;;3.90;;
12631;SDS011;6381;45.748;12.106;2023-05-10T05:45:37;4.40;;;4.00;;
12631;SDS011;6381;45.748;12.106;2023-05-10T05:48:07;4.30;;;3.77;;
12631;SDS011;6381;45.748;12.106;2023-05-10T05:50:39;5.83;;;4.20;;
12631;SDS011;6381;45.748;12.106;2023-05-10T05:53:08;4.87;;;4.37;;
12631;SDS011;6381;45.748;12.106;2023-05-10T05:55:38;5.80;;;4.33;;
12631;SDS011;6381;45.748;12.106;2023-05-10T05:58:08;6.93;;;4.60;;
12631;SDS011;6381;45.748;12.106;2023-05-10T06:00:38;4.18;;;3.80;;
12631;SDS011;6381;45.748;12.106;2023-05-10T06:03:08;4.53;;;4.13;;
12631;SDS011;6381;45.748;12.106;2023-05-10T06:05:40;4.47;;;4.07;;
12631;SDS011;6381;45.748;12.106;2023-05-10T06:08:10;5.00;;;4.50;;
12631;SDS011;6381;45.748;12.106;2023-05-10T06:10:40;4.87;;;4.43;;
12631;SDS011;6381;45.748;12.106;2023-05-10T06:13:10;8.10;;;5.90;;
12631;SDS011;6381;45.748;12.106;2023-05-10T06:15:40;5.20;;;4.65;;
12631;SDS011;6381;45.748;12.106;2023-05-10T06:18:09;5.40;;;4.90;;
12631;SDS011;6381;45.748;12.106;2023-05-10T06:20:42;5.47;;;4.97;;
12631;SDS011;6381;45.748;12.106;2023-05-10T06:23:13;4.50;;;4.10;;
12631;SDS011;6381;45.748;12.106;2023-05-10T06:25:43;4.20;;;3.80;;
12631;SDS011;6381;45.748;12.106;2023-05-10T06:28:13;4.50;;;3.60;;
12631;SDS011;6381;45.748;12.106;2023-05-10T06:30:43;4.70;;;3.80;;
12631;SDS011;6381;45.748;12.106;2023-05-10T06:33:13;3.90;;;3.50;;
12631;SDS011;6381;45.748;12.106;2023-05-10T06:35:44;4.50;;;4.10;;
12631;SDS011;6381;45.748;12.106;2023-05-10T06:38:15;6.90;;;4.50;;
12631;SDS011;6381;45.748;12.106;2023-05-10T06:40:45;4.28;;;3.88;;
12631;SDS011;6381;45.748;12.106;2023-05-10T06:43:15;6.43;;;4.45;;
12631;SDS011;6381;45.748;12.106;2023-05-10T06:45:45;5.10;;;4.10;;
12631;SDS011;6381;45.748;12.106;2023-05-10T06:48:15;5.38;;;4.18;;
12631;SDS011;6381;45.748;12.106;2023-05-10T06:50:46;6.43;;;4.88;;
12631;SDS011;6381;45.748;12.106;2023-05-10T06:53:16;5.25;;;4.75;;
12631;SDS011;6381;45.748;12.106;2023-05-10T06:55:46;5.38;;;4.88;;
12631;SDS011;6381;45.748;12.106;2023-05-10T06:58:18;6.05;;;5.45;;
12631;SDS011;6381;45.748;12.106;2023-05-10T07:00:48;6.70;;;5.05;;
12631;SDS011;6381;45.748;12.106;2023-05-10T07:03:18;7.38;;;4.97;;
12631;SDS011;6381;45.748;12.106;2023-05-10T07:05:50;5.45;;;4.95;;
12631;SDS011;6381;45.748;12.106;2023-05-10T07:08:20;4.97;;;4.47;;
12631;SDS011;6381;45.748;12.106;2023-05-10T07:11:01;4.87;;;4.40;;
12631;SDS011;6381;45.748;12.106;2023-05-10T07:13:32;4.72;;;4.13;;
12631;SDS011;6381;45.748;12.106;2023-05-10T07:16:04;5.68;;;4.80;;
12631;SDS011;6381;45.748;12.106;2023-05-10T07:18:35;4.80;;;4.32;;
12631;SDS011;6381;45.748;12.106;2023-05-10T07:21:08;4.38;;;3.97;;
12631;SDS011;6381;45.748;12.106;2023-05-10T07:23:39;6.60;;;4.20;;
12631;SDS011;6381;45.748;12.106;2023-05-10T07:26:11;4.32;;;3.88;;
12631;SDS011;6381;45.748;12.106;2023-05-10T07:28:42;4.80;;;4.30;;
12631;SDS011;6381;45.748;12.106;2023-05-10T07:31:14;5.85;;;4.45;;
12631;SDS011;6381;45.748;12.106;2023-05-10T07:33:44;4.70;;;4.30;;
12631;SDS011;6381;45.748;12.106;2023-05-10T07:36:16;4.53;;;4.13;;
12631;SDS011;6381;45.748;12.106;2023-05-10T07:38:46;4.95;;;4.47;;
12631;SDS011;6381;45.748;12.106;2023-05-10T07:41:16;4.60;;;4.20;;
12631;SDS011;6381;45.748;12.106;2023-05-10T07:43:46;4.93;;;4.53;;
12631;SDS011;6381;45.748;12.106;2023-05-10T07:46:16;5.07;;;4.57;;
12631;SDS011;6381;45.748;12.106;2023-05-10T07:48:46;4.97;;;4.53;;
12631;SDS011;6381;45.748;12.106;2023-05-10T07:51:18;4.57;;;4.17;;
12631;SDS011;6381;45.748;12.106;2023-05-10T07:53:49;5.07;;;4.55;;
12631;SDS011;6381;45.748;12.106;2023-05-10T07:56:20;5.78;;;4.32;;
12631;SDS011;6381;45.748;12.106;2023-05-10T07:58:52;4.65;;;4.25;;
12631;SDS011;6381;45.748;12.106;2023-05-10T08:01:23;5.63;;;4.72;;
12631;SDS011;6381;45.748;12.106;2023-05-10T08:03:54;5.18;;;4.78;;
12631;SDS011;6381;45.748;12.106;2023-05-10T08:06:26;6.17;;;5.10;;
12631;SDS011;6381;45.748;12.106;2023-05-10T08:08:57;5.93;;;5.10;;
12631;SDS011;6381;45.748;12.106;2023-05-10T08:11:27;5.47;;;4.65;;
12631;SDS011;6381;45.748;12.106;2023-05-10T08:13:59;5.53;;;5.03;;
12631;SDS011;6381;45.748;12.106;2023-05-10T08:16:29;5.07;;;4.57;;
12631;SDS011;6381;45.748;12.106;2023-05-10T08:18:59;5.70;;;5.17;;
12631;SDS011;6381;45.748;12.106;2023-05-10T08:21:32;5.80;;;4.80;;
12631;SDS011;6381;45.748;12.106;2023-05-10T08:24:03;5.77;;;4.70;;
12631;SDS011;6381;45.748;12.106;2023-05-10T08:26:33;4.93;;;4.53;;
12631;SDS011;6381;45.748;12.106;2023-05-10T08:29:03;5.10;;;4.70;;
12631;SDS011;6381;45.748;12.106;2023-05-10T08:31:33;5.53;;;5.03;;
12631;SDS011;6381;45.748;12.106;2023-05-10T08:34:03;8.55;;;5.03;;
12631;SDS011;6381;45.748;12.106;2023-05-10T08:36:34;5.55;;;5.03;;
12631;SDS011;6381;45.748;12.106;2023-05-10T08:39:04;5.05;;;4.57;;
12631;SDS011;6381;45.748;12.106;2023-05-10T08:41:49;5.33;;;4.83;;
12631;SDS011;6381;45.748;12.106;2023-05-10T08:44:22;5.17;;;4.77;;
12631;SDS011;6381;45.748;12.106;2023-05-10T08:46:53;5.90;;;5.30;;
12631;SDS011;6381;45.748;12.106;2023-05-10T08:49:23;5.43;;;5.03;;
12631;SDS011;6381;45.748;12.106;2023-05-10T08:51:58;5.30;;;4.80;;
12631;SDS011;6381;45.748;12.106;2023-05-10T08:54:32;6.10;;;5.20;;
12631;SDS011;6381;45.748;12.106;2023-05-10T08:57:02;5.30;;;4.80;;
12631;SDS011;6381;45.748;12.106;2023-05-10T08:59:32;6.50;;;5.37;;
12631;SDS011;6381;45.748;12.106;2023-05-10T09:02:01;5.93;;;5.30;;
12631;SDS011;6381;45.748;12.106;2023-05-10T09:04:33;6.65;;;6.05;;
12631;SDS011;6381;45.748;12.106;2023-05-10T09:07:05;6.67;;;6.07;;
12631;SDS011;6381;45.748;12.106;2023-05-10T09:09:36;7.17;;;6.20;;
12631;SDS011;6381;45.748;12.106;2023-05-10T09:12:07;7.27;;;6.20;;
12631;SDS011;6381;45.748;12.106;2023-05-10T09:14:38;7.30;;;6.60;;
12631;SDS011;6381;45.748;12.106;2023-05-10T09:17:09;7.63;;;6.53;;
12631;SDS011;6381;45.748;12.106;2023-05-10T09:19:39;9.43;;;6.40;;
12631;SDS011;6381;45.748;12.106;2023-05-10T09:22:11;6.63;;;6.03;;
12631;SDS011;6381;45.748;12.106;2023-05-10T09:24:42;7.30;;;6.60;;
12631;SDS011;6381;45.748;12.106;2023-05-10T09:27:12;6.50;;;5.90;;
12631;SDS011;6381;45.748;12.106;2023-05-10T09:29:42;7.30;;;6.47;;
12631;SDS011;6381;45.748;12.106;2023-05-10T09:32:14;6.83;;;6.23;;
12631;SDS011;6381;45.748;12.106;2023-05-10T09:34:44;7.17;;;6.57;;
12631;SDS011;6381;45.748;12.106;2023-05-10T09:37:16;7.10;;;6.40;;
12631;SDS011;6381;45.748;12.106;2023-05-10T09:39:46;7.27;;;6.23;;
12631;SDS011;6381;45.748;12.106;2023-05-10T09:42:17;7.63;;;6.93;;
12631;SDS011;6381;45.748;12.106;2023-05-10T09:44:47;7.73;;;7.03;;
12631;SDS011;6381;45.748;12.106;2023-05-10T09:47:17;8.03;;;7.23;;
12631;SDS011;6381;45.748;12.106;2023-05-10T09:49:49;7.50;;;6.70;;
12631;SDS011;6381;45.748;12.106;2023-05-10T09:52:20;8.20;;;7.47;;
12631;SDS011;6381;45.748;12.106;2023-05-10T09:54:52;8.47;;;7.60;;
12631;SDS011;6381;45.748;12.106;2023-05-10T09:57:23;8.20;;;7.47;;
12631;SDS011;6381;45.748;12.106;2023-05-10T09:59:53;8.07;;;7.27;;
12631;SDS011;6381;45.748;12.106;2023-05-10T10:02:28;7.37;;;6.67;;
12631;SDS011;6381;45.748;12.106;2023-05-10T10:04:58;7.60;;;6.77;;
12631;SDS011;6381;45.748;12.106;2023-05-10T10:07:32;7.90;;;7.20;;
12631;SDS011;6381;45.748;12.106;2023-05-10T10:10:03;8.40;;;7.07;;
12631;SDS011;6381;45.748;12.106;2023-05-10T10:12:39;8.00;;;7.20;;
12631;SDS011;6381;45.748;12.106;2023-05-10T10:15:10;7.50;;;6.70;;
12631;SDS011;6381;45.748;12.106;2023-05-10T10:17:42;7.43;;;6.60;;
12631;SDS011;6381;45.748;12.106;2023-05-10T10:20:13;8.63;;;7.23;;
12631;SDS011;6381;45.748;12.106;2023-05-10T10:22:46;8.80;;;6.70;;
12631;SDS011;6381;45.748;12.106;2023-05-10T10:25:16;6.83;;;6.13;;
12631;SDS011;6381;45.748;12.106;2023-05-10T10:27:48;7.30;;;6.33;;
12631;SDS011;6381;45.748;12.106;2023-05-10T10:30:42;9.87;;;6.97;;
12631;SDS011;6381;45.748;12.106;2023-05-10T10:36:05;7.60;;;6.80;;
12631;SDS011;6381;45.748;12.106;2023-05-10T10:38:37;6.87;;;6.23;;
12631;SDS011;6381;45.748;12.106;2023-05-10T10:41:32;7.67;;;6.63;;
12631;SDS011;6381;45.748;12.106;2023-05-10T10:44:23;9.57;;;8.77;;
12631;SDS011;6381;45.748;12.106;2023-05-10T10:50:03;7.70;;;7.00;;
12631;SDS011;6381;45.748;12.106;2023-05-10T10:52:35;7.73;;;7.03;;
12631;SDS011;6381;45.748;12.106;2023-05-10T10:55:08;7.77;;;7.07;;
12631;SDS011;6381;45.748;12.106;2023-05-10T10:57:43;8.10;;;7.37;;
12631;SDS011;6381;45.748;12.106;2023-05-10T11:02:58;7.33;;;6.63;;
12631;SDS011;6381;45.748;12.106;2023-05-10T11:05:38;7.33;;;6.73;;
12631;SDS011;6381;45.748;12.106;2023-05-10T11:08:11;8.67;;;7.87;;
12631;SDS011;6381;45.748;12.106;2023-05-10T11:10:52;8.20;;;7.50;;
12631;SDS011;6381;45.748;12.106;2023-05-10T11:13:34;8.93;;;8.03;;
12631;SDS011;6381;45.748;12.106;2023-05-10T11:16:15;8.60;;;7.77;;
12631;SDS011;6381;45.748;12.106;2023-05-10T11:18:59;8.50;;;7.77;;
12631;SDS011;6381;45.748;12.106;2023-05-10T11:21:31;8.37;;;7.67;;
12631;SDS011;6381;45.748;12.106;2023-05-10T11:24:08;8.50;;;7.80;;
12631;SDS011;6381;45.748;12.106;2023-05-10T11:26:45;8.10;;;7.33;;
12631;SDS011;6381;45.748;12.106;2023-05-10T11:29:15;8.00;;;7.30;;
12631;SDS011;6381;45.748;12.106;2023-05-10T11:31:45;7.63;;;6.93;;
12631;SDS011;6381;45.748;12.106;2023-05-10T11:34:23;8.60;;;7.77;;
12631;SDS011;6381;45.748;12.106;2023-05-10T11:36:54;8.67;;;7.77;;
12631;SDS011;6381;45.748;12.106;2023-05-10T11:39:27;8.80;;;8.00;;
12631;SDS011;6381;45.748;12.106;2023-05-10T11:42:00;9.73;;;8.10;;
12631;SDS011;6381;45.748;12.106;2023-05-10T11:44:30;8.17;;;7.47;;
12631;SDS011;6381;45.748;12.106;2023-05-10T11:47:00;8.17;;;7.43;;
12631;SDS011;6381;45.748;12.106;2023-05-10T11:49:30;9.60;;;8.70;;
12631;SDS011;6381;45.748;12.106;2023-05-10T11:52:03;8.90;;;8.10;;
12631;SDS011;6381;45.748;12.106;2023-05-10T11:54:34;9.07;;;8.17;;
12631;SDS011;6381;45.748;12.106;2023-05-10T11:57:06;9.93;;;8.93;;
12631;SDS011;6381;45.748;12.106;2023-05-10T11:59:36;9.53;;;8.57;;
12631;SDS011;6381;45.748;12.106;2023-05-10T12:02:09;9.33;;;8.43;;
12631;SDS011;6381;45.748;12.106;2023-05-10T12:04:39;10.90;;;9.80;;
12631;SDS011;6381;45.748;12.106;2023-05-10T12:07:10;10.60;;;9.60;;
12631;SDS011;6381;45.748;12.106;2023-05-10T12:09:42;10.50;;;9.50;;
12631;SDS011;6381;45.748;12.106;2023-05-10T12:12:17;11.73;;;9.80;;
12631;SDS011;6381;45.748;12.106;2023-05-10T12:14:48;10.00;;;9.00;;
12631;SDS011;6381;45.748;12.106;2023-05-10T12:17:19;9.47;;;8.67;;
12631;SDS011;6381;45.748;12.106;2023-05-10T12:19:49;10.80;;;9.80;;
12631;SDS011;6381;45.748;12.106;2023-05-10T12:22:20;10.37;;;9.20;;
12631;SDS011;6381;45.748;12.106;2023-05-10T12:24:50;10.40;;;9.40;;
12631;SDS011;6381;45.748;12.106;2023-05-10T12:27:22;11.13;;;9.87;;
12631;SDS011;6381;45.748;12.106;2023-05-10T12:29:52;10.97;;;9.87;;
12631;SDS011;6381;45.748;12.106;2023-05-10T12:32:21;11.23;;;10.13;;
12631;SDS011;6381;45.748;12.106;2023-05-10T12:35:06;10.87;;;9.87;;
12631;SDS011;6381;45.748;12.106;2023-05-10T12:37:37;11.40;;;9.33;;
12631;SDS011;6381;45.748;12.106;2023-05-10T12:40:08;10.50;;;9.50;;
12631;SDS011;6381;45.748;12.106;2023-05-10T12:42:41;11.27;;;10.17;;
12631;SDS011;6381;45.748;12.106;2023-05-10T12:45:12;10.83;;;9.27;;
12631;SDS011;6381;45.748;12.106;2023-05-10T12:47:42;10.70;;;9.60;;
12631;SDS011;6381;45.748;12.106;2023-05-10T12:50:12;10.30;;;9.30;;
12631;SDS011;6381;45.748;12.106;2023-05-10T12:52:42;11.37;;;10.27;;
12631;SDS011;6381;45.748;12.106;2023-05-10T12:55:12;11.23;;;10.13;;
12631;SDS011;6381;45.748;12.106;2023-05-10T12:57:44;11.27;;;10.23;;
12631;SDS011;6381;45.748;12.106;2023-05-10T13:00:15;11.03;;;9.93;;
12631;SDS011;6381;45.748;12.106;2023-05-10T13:02:46;11.83;;;10.57;;
12631;SDS011;6381;45.748;12.106;2023-05-10T13:05:17;12.40;;;11.20;;
12631;SDS011;6381;45.748;12.106;2023-05-10T13:07:47;12.53;;;11.37;;
12631;SDS011;6381;45.748;12.106;2023-05-10T13:10:17;12.63;;;11.33;;
12631;SDS011;6381;45.748;12.106;2023-05-10T13:12:48;11.53;;;10.53;;
12631;SDS011;6381;45.748;12.106;2023-05-10T13:15:18;10.80;;;9.80;;
12631;SDS011;6381;45.748;12.106;2023-05-10T13:17:48;11.77;;;10.57;;
12631;SDS011;6381;45.748;12.106;2023-05-10T13:20:17;11.60;;;10.50;;
12631;SDS011;6381;45.748;12.106;2023-05-10T13:22:47;12.03;;;10.83;;
12631;SDS011;6381;45.748;12.106;2023-05-10T13:25:18;11.67;;;10.47;;
12631;SDS011;6381;45.748;12.106;2023-05-10T13:27:50;10.50;;;9.53;;
12631;SDS011;6381;45.748;12.106;2023-05-10T13:30:20;11.33;;;10.23;;
12631;SDS011;6381;45.748;12.106;2023-05-10T13:32:50;11.17;;;10.07;;
12631;SDS011;6381;45.748;12.106;2023-05-10T13:35:21;11.60;;;10.50;;
12631;SDS011;6381;45.748;12.106;2023-05-10T13:37:52;11.67;;;10.60;;
12631;SDS011;6381;45.748;12.106;2023-05-10T13:40:24;12.00;;;10.87;;
12631;SDS011;6381;45.748;12.106;2023-05-10T13:42:56;11.43;;;10.43;;
12631;SDS011;6381;45.748;12.106;2023-05-10T13:45:26;11.57;;;10.37;;
12631;SDS011;6381;45.748;12.106;2023-05-10T13:47:56;12.43;;;11.17;;
12631;SDS011;6381;45.748;12.106;2023-05-10T13:50:26;12.03;;;10.90;;
12631;SDS011;6381;45.748;12.106;2023-05-10T13:52:55;12.10;;;10.90;;
12631;SDS011;6381;45.748;12.106;2023-05-10T13:55:25;11.80;;;10.70;;
12631;SDS011;6381;45.748;12.106;2023-05-10T13:57:58;11.83;;;10.73;;
12631;SDS011;6381;45.748;12.106;2023-05-10T14:00:32;11.77;;;10.77;;
12631;SDS011;6381;45.748;12.106;2023-05-10T14:03:04;10.97;;;10.00;;
12631;SDS011;6381;45.748;12.106;2023-05-10T14:05:55;11.63;;;10.53;;
12631;SDS011;6381;45.748;12.106;2023-05-10T14:08:25;11.43;;;10.33;;
12631;SDS011;6381;45.748;12.106;2023-05-10T14:10:56;12.20;;;11.10;;
12631;SDS011;6381;45.748;12.106;2023-05-10T14:13:27;13.17;;;11.97;;
12631;SDS011;6381;45.748;12.106;2023-05-10T14:15:58;13.57;;;12.23;;
12631;SDS011;6381;45.748;12.106;2023-05-10T14:18:28;13.57;;;12.17;;
12631;SDS011;6381;45.748;12.106;2023-05-10T14:20:58;13.20;;;12.07;;
12631;SDS011;6381;45.748;12.106;2023-05-10T14:23:28;13.97;;;12.67;;
12631;SDS011;6381;45.748;12.106;2023-05-10T14:25:58;13.80;;;12.57;;
12631;SDS011;6381;45.748;12.106;2023-05-10T14:28:29;14.60;;;13.30;;
12631;SDS011;6381;45.748;12.106;2023-05-10T14:31:00;14.97;;;13.07;;
12631;SDS011;6381;45.748;12.106;2023-05-10T14:33:30;15.70;;;14.30;;
12631;SDS011;6381;45.748;12.106;2023-05-10T14:36:00;15.83;;;14.33;;
12631;SDS011;6381;45.748;12.106;2023-05-10T14:38:30;16.50;;;15.00;;
12631;SDS011;6381;45.748;12.106;2023-05-10T14:41:04;16.23;;;14.73;;
12631;SDS011;6381;45.748;12.106;2023-05-10T14:43:39;16.27;;;14.77;;
12631;SDS011;6381;45.748;12.106;2023-05-10T14:46:09;15.57;;;14.20;;
12631;SDS011;6381;45.748;12.106;2023-05-10T14:48:40;15.73;;;14.33;;
12631;SDS011;6381;45.748;12.106;2023-05-10T14:51:10;16.30;;;14.90;;
12631;SDS011;6381;45.748;12.106;2023-05-10T14:53:39;15.83;;;14.33;;
12631;SDS011;6381;45.748;12.106;2023-05-10T14:56:09;15.53;;;14.13;;
12631;SDS011;6381;45.748;12.106;2023-05-10T14:58:40;15.77;;;14.37;;
12631;SDS011;6381;45.748;12.106;2023-05-10T15:01:10;16.27;;;14.67;;
12631;SDS011;6381;45.748;12.106;2023-05-10T15:03:41;15.90;;;14.27;;
12631;SDS011;6381;45.748;12.106;2023-05-10T15:06:13;15.53;;;14.03;;
12631;SDS011;6381;45.748;12.106;2023-05-10T15:08:43;15.80;;;14.30;;
12631;SDS011;6381;45.748;12.106;2023-05-10T15:11:13;15.53;;;14.23;;
12631;SDS011;6381;45.748;12.106;2023-05-10T15:13:45;15.60;;;14.20;;
12631;SDS011;6381;45.748;12.106;2023-05-10T15:16:15;15.73;;;14.40;;
12631;SDS011;6381;45.748;12.106;2023-05-10T15:18:44;15.33;;;13.93;;
12631;SDS011;6381;45.748;12.106;2023-05-10T15:21:14;14.90;;;13.53;;
12631;SDS011;6381;45.748;12.106;2023-05-10T15:23:44;15.60;;;14.20;;